createdAt,value
2022-12-08T00:01:32.902Z,9.43
2022-12-08T00:04:02.016Z,10.57
2022-12-08T00:07:00.462Z,8.27
2022-12-08T00:09:39.111Z,9.70
2022-12-08T00:12:17.930Z,9.00
2022-12-08T00:14:47.692Z,8.40
2022-12-08T00:17:16.775Z,9.30
2022-12-08T00:19:44.494Z,9.43
2022-12-08T00:22:13.262Z,7.63
2022-12-08T00:24:42.216Z,9.17
2022-12-08T00:27:11.807Z,8.60
2022-12-08T00:29:38.930Z,8.87
2022-12-08T00:32:07.055Z,7.97
2022-12-08T00:34:34.522Z,7.43
2022-12-08T00:37:01.752Z,8.83
2022-12-08T00:39:28.815Z,7.67
2022-12-08T00:42:14.083Z,8.43
2022-12-08T00:44:46.147Z,8.50
2022-12-08T00:47:15.118Z,7.90
2022-12-08T00:49:42.419Z,7.93
2022-12-08T00:52:09.811Z,7.27
2022-12-08T00:54:36.856Z,7.10
2022-12-08T00:57:04.415Z,6.60
2022-12-08T00:59:31.470Z,8.30
2022-12-08T01:01:59.023Z,7.90
2022-12-08T01:04:26.389Z,6.90
2022-12-08T01:06:53.463Z,7.00
2022-12-08T01:09:20.690Z,7.03
2022-12-08T01:11:48.165Z,7.47
2022-12-08T01:14:16.192Z,7.07
2022-12-08T01:16:43.820Z,7.20
2022-12-08T01:19:17.053Z,8.83
2022-12-08T01:21:45.821Z,7.20
2022-12-08T01:24:21.567Z,8.20
2022-12-08T01:26:50.788Z,7.60
2022-12-08T01:29:18.134Z,8.40
2022-12-08T01:31:45.591Z,7.17
2022-12-08T01:34:12.859Z,7.87
2022-12-08T01:36:40.379Z,6.97
2022-12-08T01:39:14.119Z,7.30
2022-12-08T01:41:44.098Z,7.67
2022-12-08T01:44:11.174Z,7.20
2022-12-08T01:46:41.557Z,8.50
2022-12-08T01:49:16.501Z,9.23
2022-12-08T01:51:49.950Z,9.00
2022-12-08T01:54:17.619Z,7.70
2022-12-08T01:57:08.729Z,9.70
2022-12-08T01:59:42.092Z,9.17
2022-12-08T02:02:11.560Z,9.83
2022-12-08T02:04:39.049Z,8.90
2022-12-08T02:07:09.110Z,9.30
2022-12-08T02:09:38.041Z,9.60
2022-12-08T02:12:05.299Z,9.73
2022-12-08T02:14:32.539Z,9.53
2022-12-08T02:17:29.832Z,9.10
2022-12-08T02:20:44.050Z,9.63
2022-12-08T02:23:25.260Z,9.50
2022-12-08T02:26:17.960Z,9.00
2022-12-08T02:29:19.219Z,9.80
2022-12-08T02:32:15.139Z,10.07
2022-12-08T02:35:15.830Z,10.57
2022-12-08T02:38:00.759Z,10.07
2022-12-08T02:40:39.261Z,9.20
2022-12-08T02:43:30.080Z,10.83
2022-12-08T02:46:06.312Z,10.43
2022-12-08T02:48:34.590Z,10.90
2022-12-08T02:51:02.750Z,10.33
2022-12-08T02:53:33.369Z,10.30
2022-12-08T02:57:12.068Z,10.07
2022-12-08T02:59:44.510Z,11.50
2022-12-08T03:02:26.332Z,13.60
2022-12-08T03:05:16.490Z,12.10
2022-12-08T03:07:55.895Z,12.53
2022-12-08T03:10:43.949Z,11.67
2022-12-08T03:13:24.020Z,10.90
2022-12-08T03:15:53.351Z,11.00
2022-12-08T03:18:24.190Z,10.60
2022-12-08T03:20:52.199Z,11.80
2022-12-08T03:23:20.440Z,9.77
2022-12-08T03:25:58.328Z,9.50
2022-12-08T03:28:25.929Z,9.30
2022-12-08T03:30:59.301Z,9.07
2022-12-08T03:33:37.540Z,8.77
2022-12-08T03:36:08.770Z,9.67
2022-12-08T03:38:42.970Z,10.63
2022-12-08T03:41:19.755Z,11.40
2022-12-08T03:43:54.486Z,11.27
2022-12-08T03:48:51.071Z,11.53
2022-12-08T03:51:18.972Z,12.17
2022-12-08T03:53:46.547Z,11.50
2022-12-08T03:56:23.022Z,12.80
2022-12-08T03:58:50.750Z,12.13
2022-12-08T04:01:18.093Z,13.20
2022-12-08T04:03:45.271Z,13.73
2022-12-08T04:06:12.821Z,11.73
2022-12-08T04:08:40.683Z,12.23
2022-12-08T04:11:08.199Z,13.13
2022-12-08T04:13:37.799Z,12.77
2022-12-08T04:16:06.051Z,12.67
2022-12-08T04:18:34.460Z,13.17
2022-12-08T04:21:01.709Z,14.83
2022-12-08T04:23:28.650Z,13.73
2022-12-08T04:25:55.659Z,15.40
2022-12-08T04:28:22.660Z,13.37
2022-12-08T04:30:50.510Z,12.20
2022-12-08T04:33:17.770Z,13.10
2022-12-08T04:35:44.799Z,12.10
2022-12-08T04:38:11.843Z,13.27
2022-12-08T04:40:39.840Z,12.73
2022-12-08T04:43:07.149Z,12.90
2022-12-08T04:45:34.240Z,12.40
2022-12-08T04:48:02.760Z,12.37
2022-12-08T04:50:29.760Z,10.50
2022-12-08T04:52:56.819Z,10.50
2022-12-08T04:55:23.862Z,11.70
2022-12-08T04:57:51.400Z,10.87
2022-12-08T05:00:18.931Z,13.03
2022-12-08T05:02:45.887Z,10.47
2022-12-08T05:05:13.008Z,12.00
2022-12-08T05:07:40.121Z,11.07
2022-12-08T05:10:08.491Z,13.90
2022-12-08T05:12:35.649Z,10.97
2022-12-08T05:15:02.759Z,11.33
2022-12-08T05:17:30.150Z,16.43
2022-12-08T05:19:57.029Z,13.20
2022-12-08T05:22:23.989Z,14.83
2022-12-08T05:24:50.910Z,15.50
2022-12-08T05:27:17.841Z,13.00
2022-12-08T05:29:44.928Z,13.20
2022-12-08T05:32:11.930Z,12.63
2022-12-08T05:34:38.888Z,11.87
2022-12-08T05:37:05.941Z,12.03
2022-12-08T05:39:32.890Z,13.30
2022-12-08T05:42:00.400Z,11.50
2022-12-08T05:44:27.543Z,10.87
2022-12-08T05:46:54.512Z,12.70
2022-12-08T05:49:21.609Z,11.07
2022-12-08T05:51:48.530Z,11.10
2022-12-08T05:54:15.529Z,11.20
2022-12-08T05:56:42.504Z,13.17
2022-12-08T05:59:09.579Z,12.37
2022-12-08T06:01:36.799Z,11.80
2022-12-08T06:04:05.224Z,11.00
2022-12-08T06:06:35.379Z,10.27
2022-12-08T06:09:04.185Z,11.67
2022-12-08T06:11:32.745Z,9.57
2022-12-08T06:14:00.660Z,9.47
2022-12-08T06:16:29.798Z,10.00
2022-12-08T06:18:57.661Z,10.63
2022-12-08T06:21:25.460Z,13.43
2022-12-08T06:23:54.420Z,10.83
2022-12-08T06:26:22.395Z,12.70
2022-12-08T06:28:50.285Z,13.10
2022-12-08T06:31:24.864Z,11.53
2022-12-08T06:33:52.649Z,11.70
2022-12-08T06:36:24.199Z,12.03
2022-12-08T06:38:51.755Z,12.53
2022-12-08T06:41:19.383Z,11.70
2022-12-08T06:43:46.731Z,11.37
2022-12-08T06:46:19.301Z,12.47
2022-12-08T06:48:46.940Z,11.67
2022-12-08T06:51:20.985Z,11.13
2022-12-08T06:53:47.949Z,12.37
2022-12-08T06:56:16.157Z,12.73
2022-12-08T06:58:46.172Z,12.13
2022-12-08T07:01:17.709Z,12.83
2022-12-08T07:03:44.855Z,10.63
2022-12-08T07:06:18.850Z,11.20
2022-12-08T07:08:45.791Z,12.13
2022-12-08T07:11:18.043Z,10.90
2022-12-08T07:13:48.573Z,11.20
2022-12-08T07:16:15.508Z,12.10
2022-12-08T07:18:44.201Z,12.37
2022-12-08T07:21:15.170Z,11.90
2022-12-08T07:23:43.563Z,11.30
2022-12-08T07:26:13.005Z,9.87
2022-12-08T07:28:41.940Z,11.70
2022-12-08T07:31:21.304Z,12.40
2022-12-08T07:33:48.885Z,16.43
2022-12-08T07:36:16.274Z,15.80
2022-12-08T07:38:43.854Z,12.63
2022-12-08T07:41:21.673Z,11.63
2022-12-08T07:43:51.064Z,11.93
2022-12-08T07:46:21.226Z,17.07
2022-12-08T07:48:48.337Z,16.40
2022-12-08T07:51:17.075Z,15.40
2022-12-08T07:53:53.125Z,24.10
2022-12-08T07:56:22.208Z,27.87
2022-12-08T07:58:49.242Z,13.03
2022-12-08T08:01:27.118Z,11.87
2022-12-08T08:03:56.650Z,12.20
2022-12-08T08:06:24.358Z,11.13
2022-12-08T08:08:51.330Z,13.57
2022-12-08T08:11:21.276Z,12.53
2022-12-08T08:13:50.983Z,13.07
2022-12-08T08:16:19.595Z,13.20
2022-12-08T08:18:50.193Z,14.73
2022-12-08T08:24:06.390Z,11.20
2022-12-08T08:26:33.352Z,12.13
2022-12-08T08:29:01.589Z,12.60
2022-12-08T08:31:28.648Z,13.43
2022-12-08T08:33:57.221Z,13.97
2022-12-08T08:36:24.151Z,14.00
2022-12-08T08:38:51.215Z,13.30
2022-12-08T08:41:18.187Z,13.83
2022-12-08T08:43:45.181Z,12.10
2022-12-08T08:46:12.133Z,12.13
2022-12-08T08:48:39.259Z,12.20
2022-12-08T08:51:14.770Z,12.00
2022-12-08T08:53:42.825Z,11.50
2022-12-08T08:56:16.192Z,9.87
2022-12-08T08:58:43.135Z,9.97
2022-12-08T09:01:16.697Z,11.40
2022-12-08T09:03:45.247Z,9.47
2022-12-08T09:06:13.834Z,10.50
2022-12-08T09:08:42.466Z,10.93
2022-12-08T09:11:10.087Z,8.77
2022-12-08T09:13:37.249Z,10.23
2022-12-08T09:16:08.096Z,10.03
2022-12-08T09:18:35.420Z,11.30
2022-12-08T09:21:13.306Z,10.33
2022-12-08T09:23:40.345Z,10.63
2022-12-08T09:26:07.994Z,10.00
2022-12-08T09:28:35.846Z,9.53
2022-12-08T09:31:03.042Z,9.33
2022-12-08T09:33:30.260Z,10.43
2022-12-08T09:35:57.343Z,9.50
2022-12-08T09:38:24.271Z,10.40
2022-12-08T09:40:54.577Z,10.23
2022-12-08T09:43:39.770Z,11.00
2022-12-08T09:46:11.238Z,10.67
2022-12-08T09:48:45.065Z,9.57
2022-12-08T09:51:15.092Z,9.13
2022-12-08T09:53:52.652Z,8.43
2022-12-08T09:56:24.412Z,10.30
2022-12-08T09:59:01.953Z,9.17
2022-12-08T10:01:38.761Z,9.00
2022-12-08T10:04:34.333Z,9.00
2022-12-08T10:07:13.135Z,7.97
2022-12-08T10:09:50.540Z,8.03
2022-12-08T10:12:26.728Z,10.60
2022-12-08T10:15:11.676Z,9.37
2022-12-08T10:17:46.175Z,8.77
2022-12-08T10:20:29.756Z,8.27
2022-12-08T10:23:12.636Z,9.80
2022-12-08T10:25:56.935Z,9.60
2022-12-08T10:28:23.860Z,9.60
2022-12-08T10:30:50.885Z,8.87
2022-12-08T10:33:21.864Z,9.20
2022-12-08T10:35:50.007Z,9.43
2022-12-08T10:38:23.385Z,10.50
2022-12-08T10:40:54.990Z,10.10
2022-12-08T10:43:26.130Z,8.90
2022-12-08T10:45:53.516Z,10.27
2022-12-08T10:48:26.060Z,8.50
2022-12-08T10:50:52.962Z,8.70
2022-12-08T10:53:27.268Z,9.03
2022-12-08T10:56:12.361Z,10.33
2022-12-08T10:58:45.766Z,8.30
2022-12-08T11:01:27.342Z,8.40
2022-12-08T11:04:01.520Z,7.80
2022-12-08T11:06:40.872Z,8.70
2022-12-08T11:09:19.893Z,8.33
2022-12-08T11:11:59.819Z,7.33
2022-12-08T11:14:32.565Z,7.17
2022-12-08T11:17:17.388Z,6.83
2022-12-08T11:19:56.274Z,6.13
2022-12-08T11:22:35.372Z,6.10
2022-12-08T11:25:08.237Z,6.53
2022-12-08T11:27:43.655Z,7.00
2022-12-08T11:30:25.477Z,8.40
2022-12-08T11:33:21.396Z,8.60
2022-12-08T11:35:56.185Z,7.10
2022-12-08T11:38:26.763Z,7.63
2022-12-08T11:41:15.598Z,7.80
2022-12-08T11:44:20.669Z,7.40
2022-12-08T11:46:57.303Z,8.23
2022-12-08T11:49:37.265Z,7.57
2022-12-08T11:52:28.904Z,7.87
2022-12-08T11:55:37.182Z,7.63
2022-12-08T11:58:41.959Z,7.80
2022-12-08T12:01:21.412Z,6.80
2022-12-08T12:04:15.783Z,6.60
2022-12-08T12:07:13.394Z,8.73
2022-12-08T12:10:20.280Z,8.13
2022-12-08T12:12:56.510Z,8.50
2022-12-08T12:16:23.842Z,7.40
2022-12-08T12:18:59.569Z,9.93
2022-12-08T12:21:44.384Z,6.97
2022-12-08T12:24:26.593Z,8.40
2022-12-08T12:27:04.123Z,9.17
2022-12-08T12:29:37.933Z,8.70
2022-12-08T12:32:08.704Z,8.93
2022-12-08T12:34:53.141Z,7.57
2022-12-08T12:37:38.849Z,9.70
2022-12-08T12:40:17.923Z,8.30
2022-12-08T12:43:04.888Z,7.90
2022-12-08T12:45:34.267Z,8.27
2022-12-08T12:48:01.182Z,8.73
2022-12-08T12:50:34.232Z,7.70
2022-12-08T12:53:28.547Z,8.20
2022-12-08T12:56:02.572Z,8.67
2022-12-08T12:58:32.088Z,9.43
2022-12-08T13:01:11.663Z,11.57
2022-12-08T13:03:44.752Z,9.70
2022-12-08T13:06:15.241Z,10.43
2022-12-08T13:08:54.990Z,9.57
2022-12-08T13:11:24.108Z,9.13
2022-12-08T13:14:05.457Z,10.33
2022-12-08T13:16:37.368Z,8.63
2022-12-08T13:19:10.266Z,9.50
2022-12-08T13:21:39.690Z,13.33
2022-12-08T13:24:30.994Z,9.20
2022-12-08T13:27:04.076Z,8.70
2022-12-08T13:29:36.343Z,10.95
2022-12-08T13:32:09.820Z,8.70
2022-12-08T13:34:51.861Z,8.10
2022-12-08T13:37:53.861Z,9.60
2022-12-08T13:40:26.581Z,8.60
2022-12-08T13:43:25.119Z,7.70
2022-12-08T13:55:35.505Z,10.20
2022-12-08T13:57:34.851Z,11.60
2022-12-08T14:00:18.520Z,15.40
2022-12-08T14:02:58.175Z,10.40
2022-12-08T14:06:02.815Z,10.53
2022-12-08T14:08:57.815Z,11.03
2022-12-08T14:11:36.206Z,12.30
2022-12-08T14:15:01.106Z,12.70
2022-12-08T14:17:23.224Z,12.50
2022-12-08T14:20:26.765Z,13.20
2022-12-08T14:22:55.005Z,13.53
2022-12-08T14:25:23.191Z,14.50
2022-12-08T14:27:50.746Z,11.27
2022-12-08T14:30:26.604Z,13.30
2022-12-08T14:33:00.123Z,12.50
2022-12-08T14:35:34.105Z,13.63
2022-12-08T14:38:16.959Z,13.70
2022-12-08T14:40:48.612Z,14.70
2022-12-08T14:43:21.258Z,14.00
2022-12-08T14:45:51.950Z,13.93
2022-12-08T14:48:31.684Z,14.57
2022-12-08T14:51:04.346Z,12.67
2022-12-08T14:53:59.154Z,13.93
2022-12-08T14:56:53.410Z,13.77
2022-12-08T14:59:31.475Z,14.37
2022-12-08T15:02:16.346Z,13.77
2022-12-08T15:04:47.796Z,13.90
2022-12-08T15:07:19.704Z,13.83
2022-12-08T15:09:50.529Z,13.00
2022-12-08T15:12:29.891Z,14.37
2022-12-08T15:14:56.705Z,15.00
2022-12-08T15:17:29.457Z,14.67
2022-12-08T15:20:00.041Z,14.10
2022-12-08T15:22:29.932Z,16.13
2022-12-08T15:24:57.937Z,14.63
2022-12-08T15:27:26.495Z,13.63
2022-12-08T15:29:53.884Z,14.90
2022-12-08T15:32:23.579Z,13.93
2022-12-08T15:34:51.225Z,13.80
2022-12-08T15:37:24.965Z,13.93
2022-12-08T15:39:53.151Z,15.57
2022-12-08T15:42:20.135Z,15.10
2022-12-08T15:44:47.451Z,14.00
2022-12-08T15:47:24.204Z,14.40
2022-12-08T15:49:55.312Z,14.60
2022-12-08T15:52:24.823Z,15.10
2022-12-08T15:54:51.797Z,13.97
2022-12-08T15:58:04.499Z,14.53
2022-12-08T16:00:52.437Z,14.40
2022-12-08T16:04:20.259Z,16.17
2022-12-08T16:07:04.723Z,14.67
2022-12-08T16:09:21.146Z,15.47
2022-12-08T16:12:20.915Z,18.53
2022-12-08T16:17:36.409Z,15.87
2022-12-08T16:20:06.816Z,17.90
2022-12-08T16:25:22.974Z,16.77
2022-12-08T16:28:17.231Z,18.60
2022-12-08T16:30:42.184Z,19.67
2022-12-08T16:33:12.007Z,22.03
2022-12-08T16:35:39.421Z,23.00
2022-12-08T16:38:06.475Z,22.67
2022-12-08T16:40:53.953Z,22.70
2022-12-08T16:43:20.891Z,24.10
2022-12-08T16:45:47.916Z,21.80
2022-12-08T16:48:15.772Z,20.40
2022-12-08T16:50:45.944Z,22.23
2022-12-08T16:53:13.539Z,21.63
2022-12-08T16:55:41.960Z,25.20
2022-12-08T16:58:09.145Z,29.17
2022-12-08T17:00:39.088Z,29.83
2022-12-08T17:03:11.196Z,37.93
2022-12-08T17:05:41.076Z,36.70
2022-12-08T17:08:08.178Z,37.90
2022-12-08T17:10:38.585Z,38.80
2022-12-08T17:13:05.800Z,33.40
2022-12-08T17:15:32.850Z,34.80
2022-12-08T17:17:59.864Z,30.43
2022-12-08T17:20:28.965Z,30.30
2022-12-08T17:22:58.325Z,28.20
2022-12-08T17:25:27.210Z,28.07
2022-12-08T17:27:54.666Z,28.00
2022-12-08T17:30:21.815Z,28.00
2022-12-08T17:32:48.830Z,25.37
2022-12-08T17:35:15.864Z,23.57
2022-12-08T17:37:44.200Z,25.00
2022-12-08T17:40:11.677Z,28.57
2022-12-08T17:42:39.332Z,26.50
2022-12-08T17:45:10.165Z,26.70
2022-12-08T17:47:37.457Z,25.93
2022-12-08T17:50:07.851Z,23.23
2022-12-08T17:52:35.236Z,22.67
2022-12-08T17:55:02.275Z,26.00
2022-12-08T17:57:29.296Z,21.40
2022-12-08T17:59:56.360Z,22.90
2022-12-08T18:02:23.644Z,24.57
2022-12-08T18:04:50.631Z,26.53
2022-12-08T18:07:17.681Z,22.30
2022-12-08T18:09:44.595Z,25.53
2022-12-08T18:12:11.626Z,24.97
2022-12-08T18:14:38.577Z,25.27
2022-12-08T18:17:05.849Z,25.90
2022-12-08T18:19:32.916Z,25.37
2022-12-08T18:21:59.844Z,24.30
2022-12-08T18:24:26.815Z,25.13
2022-12-08T18:26:55.284Z,24.77
2022-12-08T18:29:23.079Z,24.73
2022-12-08T18:31:50.747Z,23.17
2022-12-08T18:34:19.198Z,26.97
2022-12-08T18:36:47.259Z,24.60
2022-12-08T18:39:27.281Z,25.10
2022-12-08T18:41:57.985Z,25.97
2022-12-08T18:44:25.456Z,23.23
2022-12-08T18:46:52.491Z,23.37
2022-12-08T18:49:20.632Z,24.37
2022-12-08T18:51:48.022Z,25.23
2022-12-08T18:54:15.231Z,24.37
2022-12-08T18:56:42.224Z,26.13
2022-12-08T18:59:12.888Z,27.90
2022-12-08T19:01:44.462Z,25.60
2022-12-08T19:04:28.758Z,27.47
2022-12-08T19:06:57.163Z,25.83
2022-12-08T19:09:27.048Z,26.57
2022-12-08T19:11:55.381Z,24.80
2022-12-08T19:14:27.794Z,23.40
2022-12-08T19:16:56.496Z,23.63
2022-12-08T19:19:24.966Z,24.80
2022-12-08T19:21:54.747Z,26.03
2022-12-08T19:24:21.960Z,24.83
2022-12-08T19:26:50.659Z,28.57
2022-12-08T19:29:20.920Z,26.70
2022-12-08T19:31:48.112Z,24.37
2022-12-08T19:34:21.291Z,24.37
2022-12-08T19:36:48.569Z,25.70
2022-12-08T19:39:40.674Z,25.97
2022-12-08T19:42:38.864Z,23.37
2022-12-08T19:45:18.656Z,24.00
2022-12-08T19:47:46.542Z,22.30
2022-12-08T19:50:34.841Z,23.53
2022-12-08T19:53:08.014Z,25.23
2022-12-08T19:55:35.671Z,23.70
2022-12-08T19:58:06.545Z,23.67
2022-12-08T20:00:38.030Z,24.53
2022-12-08T20:03:08.646Z,26.13
2022-12-08T20:05:39.237Z,24.87
2022-12-08T20:08:07.391Z,25.27
2022-12-08T20:10:41.013Z,24.50
2022-12-08T20:13:28.340Z,25.43
2022-12-08T20:15:56.644Z,25.77
2022-12-08T20:18:26.145Z,27.30
2022-12-08T20:20:54.166Z,27.37
2022-12-08T20:23:22.011Z,24.13
2022-12-08T20:25:49.109Z,26.23
2022-12-08T20:28:16.139Z,25.63
2022-12-08T20:30:47.991Z,25.13
2022-12-08T20:33:17.702Z,27.07
2022-12-08T20:35:46.471Z,25.20
2022-12-08T20:38:13.969Z,25.73
2022-12-08T20:40:44.516Z,26.40
2022-12-08T20:43:11.551Z,24.23
2022-12-08T20:45:38.903Z,26.03
2022-12-08T20:48:15.154Z,25.43
2022-12-08T20:50:59.854Z,24.10
2022-12-08T20:53:54.729Z,23.67
2022-12-08T20:56:26.112Z,26.50
2022-12-08T20:58:54.860Z,28.13
2022-12-08T21:01:24.404Z,27.57
2022-12-08T21:03:53.213Z,30.20
2022-12-08T21:06:23.712Z,29.30
2022-12-08T21:08:55.010Z,30.50
2022-12-08T21:11:22.513Z,27.33
2022-12-08T21:13:50.323Z,27.93
2022-12-08T21:16:17.944Z,27.37
2022-12-08T21:18:45.476Z,28.93
2022-12-08T21:21:14.815Z,29.33
2022-12-08T21:23:43.494Z,29.37
2022-12-08T21:26:20.550Z,29.60
2022-12-08T21:28:48.264Z,31.03
2022-12-08T21:31:19.064Z,27.73
2022-12-08T21:33:46.423Z,28.73
2022-12-08T21:36:19.722Z,26.60
2022-12-08T21:38:48.393Z,27.37
2022-12-08T21:41:40.142Z,26.03
2022-12-08T21:44:10.661Z,22.80
2022-12-08T21:46:38.521Z,25.93
2022-12-08T21:49:06.076Z,26.90
2022-12-08T21:51:35.162Z,25.00
2022-12-08T21:54:02.275Z,27.83
2022-12-08T21:56:29.665Z,27.40
2022-12-08T21:58:57.426Z,26.97
2022-12-08T22:01:24.556Z,25.67
2022-12-08T22:03:51.942Z,25.30
2022-12-08T22:06:19.361Z,27.57
2022-12-08T22:08:47.272Z,24.40
2022-12-08T22:11:14.594Z,24.87
2022-12-08T22:13:42.471Z,26.53
2022-12-08T22:16:12.699Z,22.43
2022-12-08T22:18:39.801Z,22.80
2022-12-08T22:21:15.443Z,24.43
2022-12-08T22:23:44.042Z,23.60
2022-12-08T22:26:12.603Z,26.10
2022-12-08T22:28:42.890Z,23.30
2022-12-08T22:31:16.809Z,23.50
2022-12-08T22:33:44.789Z,24.50
2022-12-08T22:36:18.162Z,23.17
2022-12-08T22:38:45.987Z,24.60
2022-12-08T22:41:13.477Z,24.03
2022-12-08T22:43:41.729Z,24.23
2022-12-08T22:46:19.224Z,24.70
2022-12-08T22:48:46.912Z,24.60
2022-12-08T22:51:15.278Z,26.30
2022-12-08T22:53:42.610Z,24.20
2022-12-08T22:56:12.106Z,25.77
2022-12-08T22:58:40.879Z,22.67
2022-12-08T23:01:09.460Z,23.17
2022-12-08T23:03:36.777Z,21.57
2022-12-08T23:06:12.995Z,22.73
2022-12-08T23:08:40.765Z,22.00
2022-12-08T23:11:08.178Z,22.70
2022-12-08T23:13:35.162Z,23.00
2022-12-08T23:16:02.309Z,22.57
2022-12-08T23:18:29.425Z,22.70
2022-12-08T23:20:56.658Z,20.50
2022-12-08T23:23:23.600Z,22.60
2022-12-08T23:25:50.567Z,23.97
2022-12-08T23:28:17.618Z,21.47
2022-12-08T23:30:44.816Z,23.10
2022-12-08T23:33:12.045Z,23.20
2022-12-08T23:35:39.398Z,22.80
2022-12-08T23:38:06.660Z,19.90
2022-12-08T23:40:33.695Z,18.73
2022-12-08T23:43:00.722Z,22.20
2022-12-08T23:45:27.753Z,19.90
2022-12-08T23:47:54.778Z,20.73
2022-12-08T23:50:21.960Z,21.00
2022-12-08T23:52:49.082Z,21.37
2022-12-08T23:55:16.180Z,20.53
2022-12-08T23:57:43.720Z,21.40
